Time;durP1;ratioP1;P1;durP2;ratioP2;P2;SDS_P1;SDS_P2;PMS_P1;PMS_P2;Temp;Humidity;BMP_temperature;BMP_pressure;BME280_temperature;BME280_humidity;BME280_pressure;Samples;Min_cycle;Max_cycle;Signal;HPM_P1;HPM_P2
2023/01/29 00:02:04;;;;;;;0.75;0.75;;;;;;;;;;5025677;28;20032;-77
2023/01/29 00:04:30;;;;;;;1.27;1.00;;;;;;;;;;5025917;28;20228;-76
2023/01/29 00:06:56;;;;;;;1.05;0.80;;;;;;;;;;5025560;28;20172;-76
2023/01/29 00:09:22;;;;;;;1.55;1.23;;;;;;;;;;5025808;28;20032;-76
2023/01/29 00:11:48;;;;;;;1.10;1.00;;;;;;;;;;5029302;28;20029;-76
2023/01/29 00:14:14;;;;;;;3.80;0.60;;;;;;;;;;5026037;28;20024;-76
2023/01/29 00:16:40;;;;;;;2.08;0.80;;;;;;;;;;5025079;28;20485;-76
2023/01/29 00:19:06;;;;;;;1.48;1.08;;;;;;;;;;5025604;28;20521;-76
2023/01/29 00:21:32;;;;;;;1.92;1.00;;;;;;;;;;5025578;28;20021;-76
2023/01/29 00:23:58;;;;;;;1.05;0.73;;;;;;;;;;5025536;28;20060;-76
2023/01/29 00:26:24;;;;;;;1.63;1.02;;;;;;;;;;5025352;28;20170;-77
2023/01/29 00:28:50;;;;;;;2.13;0.95;;;;;;;;;;5025185;28;20037;-76
2023/01/29 00:31:18;;;;;;;0.80;0.80;;;;;;;;;;5025750;28;20036;-76
2023/01/29 00:33:44;;;;;;;2.90;0.90;;;;;;;;;;5025720;28;20453;-76
2023/01/29 00:36:13;;;;;;;0.85;0.80;;;;;;;;;;5025256;28;20041;-76
2023/01/29 00:38:39;;;;;;;0.80;0.80;;;;;;;;;;5025023;28;20448;-77
2023/01/29 00:46:39;;;;;;;1.67;0.88;;;;;;;;;;5025094;28;20045;-76
2023/01/29 00:49:06;;;;;;;2.97;0.90;;;;;;;;;;5025294;28;20397;-76
2023/01/29 00:51:32;;;;;;;1.73;0.95;;;;;;;;;;5027327;28;20596;-76
2023/01/29 00:53:58;;;;;;;2.22;0.90;;;;;;;;;;5029177;28;20108;-76
2023/01/29 00:56:24;;;;;;;1.02;0.73;;;;;;;;;;5028781;28;20022;-76
2023/01/29 00:58:50;;;;;;;1.48;0.80;;;;;;;;;;5028608;28;20076;-76
2023/01/29 01:03:04;;;;;;;2.30;1.10;;;;;;;;;;5028922;28;20041;-76
2023/01/29 01:04:02;;;;;;;0.95;0.90;;;;;;;;;;5028771;28;20029;-76
2023/01/29 01:06:28;;;;;;;1.17;1.00;;;;;;;;;;5028970;28;20028;-76
2023/01/29 01:11:38;;;;;;;0.85;0.80;;;;;;;;;;5032155;28;20124;-76
2023/01/29 01:14:04;;;;;;;1.13;1.00;;;;;;;;;;5028414;28;20033;-76
2023/01/29 01:16:30;;;;;;;0.77;0.70;;;;;;;;;;5028828;28;20029;-76
2023/01/29 01:18:56;;;;;;;2.13;1.17;;;;;;;;;;5028472;28;20025;-76
2023/01/29 01:21:22;;;;;;;1.65;1.02;;;;;;;;;;5028404;28;20048;-76
2023/01/29 01:23:50;;;;;;;1.67;1.10;;;;;;;;;;5028242;28;20030;-76
2023/01/29 01:26:16;;;;;;;3.88;0.90;;;;;;;;;;5028757;28;20527;-76
2023/01/29 01:28:42;;;;;;;1.25;1.00;;;;;;;;;;5028606;28;20026;-76
2023/01/29 01:31:12;;;;;;;1.38;1.00;;;;;;;;;;5028231;28;20162;-76
2023/01/29 01:33:39;;;;;;;2.65;1.00;;;;;;;;;;5027708;28;20121;-76
2023/01/29 01:36:08;;;;;;;1.17;0.90;;;;;;;;;;5028095;28;20026;-76
2023/01/29 01:38:34;;;;;;;0.75;0.70;;;;;;;;;;5027879;28;20025;-76
2023/01/29 01:41:00;;;;;;;2.03;0.98;;;;;;;;;;5028457;28;20032;-76
2023/01/29 01:43:26;;;;;;;2.88;1.00;;;;;;;;;;5028054;28;20017;-76
2023/01/29 01:45:52;;;;;;;1.27;0.80;;;;;;;;;;5027696;28;20414;-76
2023/01/29 01:48:21;;;;;;;1.00;0.88;;;;;;;;;;5027873;28;20029;-76
2023/01/29 01:50:50;;;;;;;1.75;1.17;;;;;;;;;;5027855;28;20156;-76
2023/01/29 01:53:24;;;;;;;1.17;1.05;;;;;;;;;;5028149;28;20025;-76
2023/01/29 01:55:53;;;;;;;1.38;1.00;;;;;;;;;;5027937;28;20073;-76
2023/01/29 01:58:22;;;;;;;0.90;0.90;;;;;;;;;;5027512;28;20032;-76
2023/01/29 02:00:48;;;;;;;2.40;1.00;;;;;;;;;;5027450;28;20056;-76
2023/01/29 02:11:35;;;;;;;2.60;1.00;;;;;;;;;;5031542;28;20047;-76
2023/01/29 02:14:00;;;;;;;1.30;1.00;;;;;;;;;;5027853;28;20029;-77
2023/01/29 02:16:26;;;;;;;0.60;0.60;;;;;;;;;;5027548;28;20099;-78
2023/01/29 02:18:53;;;;;;;1.70;1.00;;;;;;;;;;5027353;28;20021;-77
2023/01/29 02:21:37;;;;;;;1.35;0.93;;;;;;;;;;5027107;28;20466;-77
2023/01/29 02:24:18;;;;;;;1.58;1.27;;;;;;;;;;5027522;28;20441;-77
2023/01/29 02:26:58;;;;;;;1.33;1.00;;;;;;;;;;5027634;28;20474;-76
2023/01/29 02:29:29;;;;;;;0.88;0.80;;;;;;;;;;5027277;28;20267;-77
2023/01/29 02:32:13;;;;;;;1.92;1.35;;;;;;;;;;5027132;28;20060;-77
2023/01/29 02:37:33;;;;;;;1.67;1.00;;;;;;;;;;5027337;28;20028;-77
2023/01/29 02:40:08;;;;;;;1.30;1.00;;;;;;;;;;5027461;28;20045;-77
2023/01/29 02:42:38;;;;;;;1.98;1.00;;;;;;;;;;5026982;28;20026;-77
2023/01/29 02:45:11;;;;;;;2.05;1.10;;;;;;;;;;5027085;28;20040;-77
2023/01/29 02:47:37;;;;;;;1.45;1.10;;;;;;;;;;5026533;28;20048;-76
2023/01/29 02:50:06;;;;;;;1.42;1.27;;;;;;;;;;5026889;28;20375;-77
2023/01/29 02:52:38;;;;;;;1.10;1.00;;;;;;;;;;5027222;28;20079;-76
2023/01/29 02:55:07;;;;;;;1.83;1.00;;;;;;;;;;5026224;28;20029;-77
2023/01/29 02:57:35;;;;;;;2.17;1.10;;;;;;;;;;5026708;28;20027;-77
2023/01/29 03:00:07;;;;;;;2.80;1.15;;;;;;;;;;5027166;28;20042;-76
2023/01/29 03:02:37;;;;;;;1.20;1.00;;;;;;;;;;5026893;28;20025;-77
2023/01/29 03:05:06;;;;;;;2.05;1.20;;;;;;;;;;5013294;28;20030;-77
2023/01/29 03:07:43;;;;;;;0.85;0.85;;;;;;;;;;5026904;28;20033;-77
2023/01/29 03:10:12;;;;;;;1.90;1.25;;;;;;;;;;5026600;28;20030;-77
2023/01/29 03:12:39;;;;;;;1.50;1.20;;;;;;;;;;5030896;28;20092;-77
2023/01/29 03:15:12;;;;;;;1.10;0.85;;;;;;;;;;5025719;28;20044;-77
2023/01/29 03:17:41;;;;;;;1.33;1.02;;;;;;;;;;5026535;28;20237;-77
2023/01/29 03:20:12;;;;;;;1.42;1.00;;;;;;;;;;5026363;28;20417;-77
2023/01/29 03:22:39;;;;;;;1.15;1.00;;;;;;;;;;5026200;28;20423;-77
2023/01/29 03:33:35;;;;;;;0.90;0.68;;;;;;;;;;5026468;28;20040;-77
2023/01/29 03:36:05;;;;;;;1.98;1.30;;;;;;;;;;5026481;28;20033;-77
2023/01/29 03:38:31;;;;;;;2.00;1.48;;;;;;;;;;5026535;28;20029;-76
2023/01/29 03:41:02;;;;;;;1.70;0.95;;;;;;;;;;5025896;28;20413;-77
2023/01/29 03:43:39;;;;;;;1.20;1.00;;;;;;;;;;5008602;28;20024;-76
2023/01/29 03:46:08;;;;;;;1.45;1.17;;;;;;;;;;5026026;28;20032;-77
2023/01/29 03:48:40;;;;;;;2.17;1.23;;;;;;;;;;5025957;28;20025;-76
2023/01/29 03:51:12;;;;;;;2.40;1.23;;;;;;;;;;5025848;28;20025;-76
2023/01/29 03:53:43;;;;;;;2.15;1.30;;;;;;;;;;5025826;28;20461;-77
2023/01/29 03:56:19;;;;;;;1.10;1.00;;;;;;;;;;5026000;28;20112;-76
2023/01/29 03:58:50;;;;;;;1.15;0.80;;;;;;;;;;5026009;28;20038;-76
2023/01/29 04:01:18;;;;;;;1.00;0.90;;;;;;;;;;5026168;28;20438;-76
2023/01/29 04:03:50;;;;;;;1.73;1.02;;;;;;;;;;5025813;28;20051;-76
2023/01/29 04:06:18;;;;;;;2.00;1.08;;;;;;;;;;5026119;28;20030;-76
2023/01/29 04:08:50;;;;;;;0.73;0.73;;;;;;;;;;5026218;28;20032;-76
2023/01/29 04:11:18;;;;;;;1.23;1.13;;;;;;;;;;5029762;28;20132;-76
2023/01/29 04:13:45;;;;;;;1.58;1.10;;;;;;;;;;5026097;28;20026;-77
2023/01/29 04:16:14;;;;;;;1.52;1.00;;;;;;;;;;5025838;28;20026;-77
2023/01/29 04:18:40;;;;;;;1.45;1.25;;;;;;;;;;5025297;28;20477;-77
2023/01/29 04:21:06;;;;;;;0.82;0.75;;;;;;;;;;5025614;28;20257;-76
2023/01/29 04:23:32;;;;;;;1.98;1.00;;;;;;;;;;5025902;28;20025;-77
2023/01/29 04:26:17;;;;;;;1.60;1.00;;;;;;;;;;5026738;28;20028;-77
2023/01/29 04:28:49;;;;;;;1.85;1.27;;;;;;;;;;5029938;28;20025;-77
2023/01/29 04:31:16;;;;;;;0.93;0.90;;;;;;;;;;5029979;28;20538;-77
2023/01/29 04:34:04;;;;;;;1.80;1.25;;;;;;;;;;5029728;28;20091;-76
2023/01/29 04:36:36;;;;;;;1.00;0.90;;;;;;;;;;5029802;28;20116;-76
2023/01/29 04:39:18;;;;;;;1.23;1.02;;;;;;;;;;5029329;28;20389;-77
2023/01/29 04:41:54;;;;;;;1.25;1.15;;;;;;;;;;5029713;28;20049;-76
2023/01/29 04:44:43;;;;;;;1.42;1.10;;;;;;;;;;5029176;28;20036;-77
2023/01/29 04:47:17;;;;;;;2.75;1.40;;;;;;;;;;5016534;28;20460;-77
2023/01/29 04:49:42;;;;;;;2.28;1.13;;;;;;;;;;5029374;28;20064;-76
2023/01/29 04:52:12;;;;;;;1.45;1.05;;;;;;;;;;5028990;28;20548;-77
2023/01/29 04:54:41;;;;;;;1.90;1.27;;;;;;;;;;5028980;28;20021;-77
2023/01/29 04:57:14;;;;;;;1.35;1.05;;;;;;;;;;5028658;28;20108;-77
2023/01/29 04:59:42;;;;;;;1.60;0.93;;;;;;;;;;5028686;28;20041;-77
2023/01/29 05:02:10;;;;;;;2.50;1.40;;;;;;;;;;5029300;28;20017;-77
2023/01/29 05:04:37;;;;;;;1.73;1.17;;;;;;;;;;5028631;28;20326;-77
2023/01/29 05:07:05;;;;;;;1.25;0.98;;;;;;;;;;5028900;28;20037;-77
2023/01/29 05:09:33;;;;;;;1.60;1.10;;;;;;;;;;5029054;28;20029;-77
2023/01/29 05:12:00;;;;;;;1.73;1.15;;;;;;;;;;5015283;28;20026;-75
2023/01/29 05:14:26;;;;;;;1.25;1.00;;;;;;;;;;5028926;28;20029;-77
2023/01/29 05:16:53;;;;;;;1.08;0.93;;;;;;;;;;5028485;28;20022;-77
2023/01/29 05:19:19;;;;;;;2.58;1.30;;;;;;;;;;5028587;28;20057;-77
2023/01/29 05:21:47;;;;;;;4.35;1.35;;;;;;;;;;5028822;28;20508;-77
2023/01/29 05:24:17;;;;;;;1.48;1.00;;;;;;;;;;5029206;28;20115;-77
2023/01/29 05:29:29;;;;;;;1.33;1.10;;;;;;;;;;5029180;28;20080;-77
2023/01/29 05:31:55;;;;;;;1.10;0.90;;;;;;;;;;5028069;28;20029;-77
2023/01/29 05:34:21;;;;;;;1.65;1.20;;;;;;;;;;5028222;28;20041;-78
2023/01/29 05:36:47;;;;;;;1.42;1.02;;;;;;;;;;5028056;28;20021;-78
2023/01/29 05:39:13;;;;;;;1.55;1.20;;;;;;;;;;5028645;28;20371;-77
2023/01/29 05:41:39;;;;;;;1.30;0.98;;;;;;;;;;5028411;28;20033;-77
2023/01/29 05:44:05;;;;;;;2.28;1.15;;;;;;;;;;5027852;28;20033;-77
2023/01/29 05:46:31;;;;;;;2.22;1.25;;;;;;;;;;5028802;28;20029;-77
2023/01/29 05:48:58;;;;;;;1.40;1.20;;;;;;;;;;5028148;28;20028;-77
2023/01/29 05:51:24;;;;;;;1.25;1.00;;;;;;;;;;5028199;28;20025;-77
2023/01/29 05:53:50;;;;;;;3.30;1.42;;;;;;;;;;5027943;28;20385;-76
2023/01/29 05:56:16;;;;;;;1.40;1.10;;;;;;;;;;5028406;28;20033;-78
2023/01/29 05:58:41;;;;;;;1.20;0.98;;;;;;;;;;5027934;28;20021;-76
2023/01/29 06:01:10;;;;;;;1.38;1.00;;;;;;;;;;5027725;28;20049;-77
2023/01/29 06:03:36;;;;;;;1.20;1.05;;;;;;;;;;5027631;28;20462;-77
2023/01/29 06:06:02;;;;;;;1.50;1.10;;;;;;;;;;5028000;28;20073;-77
2023/01/29 06:08:28;;;;;;;1.30;1.08;;;;;;;;;;5028393;28;20087;-78
2023/01/29 06:10:54;;;;;;;1.27;1.05;;;;;;;;;;5028334;28;20502;-78
2023/01/29 06:13:20;;;;;;;1.45;1.13;;;;;;;;;;5031484;28;20033;-77
2023/01/29 06:15:46;;;;;;;1.17;1.08;;;;;;;;;;5028064;28;20028;-77
2023/01/29 06:18:12;;;;;;;1.13;1.00;;;;;;;;;;5028225;28;20462;-76
2023/01/29 06:20:39;;;;;;;2.40;1.40;;;;;;;;;;5027677;28;20361;-76
2023/01/29 06:23:04;;;;;;;1.55;1.23;;;;;;;;;;5027105;28;20033;-78
2023/01/29 06:25:31;;;;;;;2.10;1.10;;;;;;;;;;5028483;28;20029;-77
2023/01/29 06:27:57;;;;;;;1.58;1.15;;;;;;;;;;5027242;28;20032;-78
2023/01/29 06:30:23;;;;;;;2.15;1.15;;;;;;;;;;5027281;28;20327;-77
2023/01/29 06:32:49;;;;;;;3.15;1.20;;;;;;;;;;5027282;28;20056;-77
2023/01/29 06:35:15;;;;;;;2.65;1.25;;;;;;;;;;5027518;28;20116;-78
2023/01/29 06:37:40;;;;;;;0.98;0.90;;;;;;;;;;5026904;28;20164;-77
2023/01/29 06:40:07;;;;;;;1.77;1.00;;;;;;;;;;5027100;28;20146;-77
2023/01/29 06:42:36;;;;;;;1.90;1.05;;;;;;;;;;5027620;28;20462;-77
2023/01/29 06:45:02;;;;;;;1.25;1.05;;;;;;;;;;5027253;28;20033;-77
2023/01/29 06:47:28;;;;;;;1.00;0.90;;;;;;;;;;5027662;28;20068;-77
2023/01/29 06:49:54;;;;;;;1.70;1.20;;;;;;;;;;5026130;28;20791;-78
2023/01/29 06:52:20;;;;;;;1.30;1.15;;;;;;;;;;5026950;28;20526;-77
2023/01/29 06:54:46;;;;;;;2.90;1.60;;;;;;;;;;5027295;28;20026;-77
2023/01/29 06:57:12;;;;;;;1.40;1.08;;;;;;;;;;5027313;28;20028;-77
2023/01/29 06:59:38;;;;;;;1.27;1.08;;;;;;;;;;5026624;28;20329;-77
2023/01/29 07:02:04;;;;;;;1.77;1.13;;;;;;;;;;5026528;28;20365;-77
2023/01/29 07:04:30;;;;;;;1.73;1.10;;;;;;;;;;5027397;28;20432;-77
2023/01/29 07:06:56;;;;;;;2.53;1.08;;;;;;;;;;5026564;28;20553;-78
2023/01/29 07:09:22;;;;;;;1.35;0.90;;;;;;;;;;5026694;28;20232;-78
2023/01/29 07:11:48;;;;;;;2.55;1.35;;;;;;;;;;5030879;28;20568;-78
2023/01/29 07:14:14;;;;;;;2.08;1.33;;;;;;;;;;5027303;28;20410;-77
2023/01/29 07:16:40;;;;;;;2.20;1.25;;;;;;;;;;5026820;28;20026;-77
2023/01/29 07:19:06;;;;;;;1.20;1.00;;;;;;;;;;5026334;28;20171;-78
2023/01/29 07:21:32;;;;;;;1.80;1.20;;;;;;;;;;5026949;28;20021;-77
2023/01/29 07:23:58;;;;;;;4.95;0.95;;;;;;;;;;5026749;28;20381;-78
2023/01/29 07:26:24;;;;;;;1.73;1.27;;;;;;;;;;5026421;28;20478;-77
2023/01/29 07:28:50;;;;;;;1.42;1.10;;;;;;;;;;5008634;28;20025;-77
2023/01/29 07:31:15;;;;;;;1.90;1.17;;;;;;;;;;5026713;28;20079;-77
2023/01/29 07:33:45;;;;;;;2.22;1.10;;;;;;;;;;5026645;28;20079;-77
2023/01/29 07:36:11;;;;;;;1.55;1.13;;;;;;;;;;5026295;28;20076;-77
2023/01/29 07:38:37;;;;;;;1.52;1.30;;;;;;;;;;5026350;28;20021;-77
2023/01/29 07:41:03;;;;;;;1.48;1.20;;;;;;;;;;5026041;28;20033;-77
2023/01/29 07:43:29;;;;;;;2.10;1.40;;;;;;;;;;5026915;28;20384;-77
2023/01/29 07:45:55;;;;;;;2.25;1.40;;;;;;;;;;5026124;28;20022;-77
2023/01/29 07:48:22;;;;;;;1.90;1.30;;;;;;;;;;5026248;28;20571;-76
2023/01/29 07:50:55;;;;;;;1.60;1.20;;;;;;;;;;5026483;28;20025;-77
2023/01/29 07:53:21;;;;;;;2.13;1.20;;;;;;;;;;5026414;28;20018;-77
2023/01/29 07:55:47;;;;;;;2.88;1.50;;;;;;;;;;5026107;28;20065;-76
2023/01/29 07:58:13;;;;;;;3.30;1.35;;;;;;;;;;5026692;28;20029;-76
2023/01/29 08:00:39;;;;;;;1.40;0.98;;;;;;;;;;5025467;28;20540;-76
2023/01/29 08:03:06;;;;;;;1.30;1.20;;;;;;;;;;5026065;28;20024;-77
2023/01/29 08:05:33;;;;;;;1.58;1.10;;;;;;;;;;5013157;28;20030;-77
2023/01/29 08:07:59;;;;;;;2.15;1.50;;;;;;;;;;5026524;28;20084;-77
2023/01/29 08:10:25;;;;;;;2.03;1.23;;;;;;;;;;5026225;28;20022;-77
2023/01/29 08:12:58;;;;;;;1.40;1.05;;;;;;;;;;5029963;28;20647;-77
2023/01/29 08:15:24;;;;;;;4.20;1.30;;;;;;;;;;5026214;28;20025;-77
2023/01/29 08:17:50;;;;;;;1.30;1.10;;;;;;;;;;5026203;28;20013;-77
2023/01/29 08:20:16;;;;;;;1.13;1.00;;;;;;;;;;5008312;28;20036;-77
2023/01/29 08:22:42;;;;;;;2.10;1.17;;;;;;;;;;5026328;28;20026;-77
2023/01/29 08:25:09;;;;;;;2.25;1.40;;;;;;;;;;5025987;28;20029;-77
2023/01/29 08:27:35;;;;;;;2.10;1.20;;;;;;;;;;5026130;28;20040;-78
2023/01/29 08:30:01;;;;;;;1.70;1.27;;;;;;;;;;5026363;28;20025;-77
2023/01/29 08:32:27;;;;;;;1.42;1.15;;;;;;;;;;5026041;28;20466;-77
2023/01/29 08:34:53;;;;;;;1.25;1.15;;;;;;;;;;5026036;28;20022;-77
2023/01/29 08:37:19;;;;;;;1.33;1.10;;;;;;;;;;5025586;28;20030;-77
2023/01/29 08:39:45;;;;;;;1.27;1.05;;;;;;;;;;5026037;28;20446;-77
2023/01/29 08:42:11;;;;;;;1.67;1.13;;;;;;;;;;5025596;28;20068;-77
2023/01/29 08:44:36;;;;;;;1.85;1.30;;;;;;;;;;5025602;28;20128;-76
2023/01/29 08:47:03;;;;;;;1.42;1.20;;;;;;;;;;5025631;28;20072;-76
2023/01/29 08:49:29;;;;;;;1.38;1.10;;;;;;;;;;5026693;28;20030;-76
2023/01/29 08:51:55;;;;;;;1.13;1.00;;;;;;;;;;5026049;28;20034;-76
2023/01/29 08:54:22;;;;;;;1.15;0.90;;;;;;;;;;5025652;28;20021;-77
2023/01/29 08:56:48;;;;;;;1.52;1.10;;;;;;;;;;5025985;28;20029;-77
2023/01/29 08:59:13;;;;;;;1.10;1.00;;;;;;;;;;5025799;28;20433;-77
2023/01/29 09:01:39;;;;;;;0.82;0.82;;;;;;;;;;5026023;28;20025;-77
2023/01/29 09:04:06;;;;;;;1.30;1.20;;;;;;;;;;5007235;28;20032;-77
2023/01/29 09:06:31;;;;;;;1.85;0.98;;;;;;;;;;5007868;28;20033;-77
2023/01/29 09:08:57;;;;;;;1.38;1.13;;;;;;;;;;5025917;28;20026;-77
2023/01/29 09:11:23;;;;;;;4.07;1.60;;;;;;;;;;5029527;28;20032;-77
2023/01/29 09:13:49;;;;;;;1.95;1.30;;;;;;;;;;5029060;28;20079;-77
2023/01/29 09:16:15;;;;;;;1.05;0.95;;;;;;;;;;5029412;28;20032;-77
2023/01/29 09:18:41;;;;;;;1.55;1.30;;;;;;;;;;5029293;28;20017;-77
2023/01/29 09:21:07;;;;;;;1.33;1.00;;;;;;;;;;5029016;28;20281;-77
2023/01/29 09:23:33;;;;;;;3.20;1.20;;;;;;;;;;5028816;28;20025;-77
2023/01/29 09:25:59;;;;;;;1.67;1.25;;;;;;;;;;5029224;28;20032;-77
2023/01/29 09:28:25;;;;;;;1.77;1.45;;;;;;;;;;5028908;28;20382;-77
2023/01/29 09:30:51;;;;;;;1.80;1.10;;;;;;;;;;5028775;28;20159;-77
2023/01/29 09:33:17;;;;;;;3.83;1.10;;;;;;;;;;5029041;28;20026;-76
2023/01/29 09:35:47;;;;;;;1.38;1.23;;;;;;;;;;5029164;28;20026;-77
2023/01/29 09:38:13;;;;;;;1.65;1.25;;;;;;;;;;5028528;28;20013;-77
2023/01/29 09:40:54;;;;;;;1.30;1.15;;;;;;;;;;5028773;28;20075;-77
2023/01/29 09:43:23;;;;;;;1.98;1.30;;;;;;;;;;5028808;28;20033;-77
2023/01/29 09:45:52;;;;;;;1.65;1.00;;;;;;;;;;5028635;28;20041;-78
2023/01/29 09:48:19;;;;;;;1.63;1.13;;;;;;;;;;5028557;28;20120;-78
2023/01/29 09:50:47;;;;;;;1.10;1.00;;;;;;;;;;5028969;28;20033;-77
2023/01/29 09:53:19;;;;;;;1.33;1.00;;;;;;;;;;5028749;28;20035;-77
2023/01/29 09:55:48;;;;;;;1.10;1.00;;;;;;;;;;5029033;28;20033;-77
2023/01/29 09:58:19;;;;;;;1.40;1.10;;;;;;;;;;5028606;28;20433;-77
2023/01/29 10:00:54;;;;;;;1.35;1.17;;;;;;;;;;5028514;28;20124;-77
2023/01/29 10:03:28;;;;;;;1.25;1.05;;;;;;;;;;5027873;28;20701;-77
2023/01/29 10:06:04;;;;;;;1.20;1.00;;;;;;;;;;5028604;28;20544;-77
2023/01/29 10:08:49;;;;;;;2.17;1.20;;;;;;;;;;5028877;28;20025;-78
2023/01/29 10:11:33;;;;;;;1.80;1.27;;;;;;;;;;5032126;28;20450;-77
2023/01/29 10:14:08;;;;;;;1.20;1.10;;;;;;;;;;5017284;28;20112;-77
2023/01/29 10:16:49;;;;;;;2.60;1.00;;;;;;;;;;5027674;28;20052;-76
2023/01/29 10:19:23;;;;;;;1.67;1.25;;;;;;;;;;5028391;28;20029;-76
2023/01/29 10:21:49;;;;;;;1.27;1.17;;;;;;;;;;5028035;28;20497;-76
2023/01/29 10:24:25;;;;;;;2.33;1.27;;;;;;;;;;5028319;28;20034;-77
2023/01/29 10:26:51;;;;;;;3.45;1.50;;;;;;;;;;5028225;28;20033;-76
2023/01/29 10:29:20;;;;;;;2.17;1.30;;;;;;;;;;5027915;28;20097;-76
2023/01/29 10:31:49;;;;;;;1.58;1.30;;;;;;;;;;5028476;28;20390;-76
2023/01/29 10:34:24;;;;;;;1.88;1.20;;;;;;;;;;5028091;28;20128;-76
2023/01/29 10:36:50;;;;;;;2.53;1.17;;;;;;;;;;5027833;28;20196;-76
2023/01/29 10:39:17;;;;;;;1.67;1.17;;;;;;;;;;5028286;28;20029;-76
2023/01/29 10:42:04;;;;;;;1.98;1.70;;;;;;;;;;5028134;28;20036;-77
2023/01/29 10:44:38;;;;;;;4.15;1.20;;;;;;;;;;5028224;28;20093;-77
2023/01/29 10:47:04;;;;;;;1.13;1.00;;;;;;;;;;5041498;28;20158;-76
2023/01/29 10:49:40;;;;;;;5.95;1.38;;;;;;;;;;5047984;28;20029;-77
2023/01/29 10:52:33;;;;;;;1.52;1.15;;;;;;;;;;5046961;28;20035;-77
2023/01/29 10:55:03;;;;;;;1.70;1.13;;;;;;;;;;5047599;28;20035;-77
2023/01/29 10:57:40;;;;;;;4.45;1.23;;;;;;;;;;5048240;28;20108;-77
2023/01/29 11:00:12;;;;;;;1.23;0.90;;;;;;;;;;5047206;28;20275;-77
2023/01/29 11:02:44;;;;;;;1.55;1.00;;;;;;;;;;5047508;28;20032;-77
2023/01/29 11:05:18;;;;;;;1.02;1.00;;;;;;;;;;5029748;28;20037;-77
2023/01/29 11:07:44;;;;;;;2.20;1.30;;;;;;;;;;5027740;28;20033;-77
2023/01/29 11:10:13;;;;;;;1.75;1.20;;;;;;;;;;5027127;28;20027;-77
2023/01/29 11:12:42;;;;;;;2.53;1.40;;;;;;;;;;5030843;28;20494;-77
2023/01/29 11:15:11;;;;;;;1.73;1.13;;;;;;;;;;5026894;28;20294;-77
2023/01/29 11:17:37;;;;;;;2.20;1.50;;;;;;;;;;5026952;28;20303;-78
2023/01/29 11:20:05;;;;;;;2.08;1.23;;;;;;;;;;5027149;28;20022;-77
2023/01/29 11:22:31;;;;;;;1.20;1.10;;;;;;;;;;5027547;28;20026;-77
2023/01/29 11:25:15;;;;;;;2.17;1.20;;;;;;;;;;5027054;28;20029;-78
2023/01/29 11:27:49;;;;;;;1.98;1.15;;;;;;;;;;5027171;28;20072;-77
2023/01/29 11:30:21;;;;;;;1.45;1.17;;;;;;;;;;5027205;28;20540;-78
2023/01/29 11:32:55;;;;;;;1.30;1.20;;;;;;;;;;5027211;28;20021;-77
2023/01/29 11:35:23;;;;;;;1.63;1.20;;;;;;;;;;5026259;28;20036;-78
2023/01/29 11:37:49;;;;;;;1.67;1.25;;;;;;;;;;5026767;28;20017;-78
2023/01/29 11:40:18;;;;;;;1.17;1.05;;;;;;;;;;5026991;28;20029;-78
2023/01/29 11:42:44;;;;;;;1.10;1.00;;;;;;;;;;5026950;28;20029;-77
2023/01/29 11:45:19;;;;;;;1.25;1.15;;;;;;;;;;5026380;28;20022;-78
2023/01/29 11:47:56;;;;;;;1.80;1.20;;;;;;;;;;5026728;28;20036;-78
2023/01/29 11:50:29;;;;;;;1.27;1.13;;;;;;;;;;5026561;28;20023;-77
2023/01/29 11:52:55;;;;;;;1.20;0.90;;;;;;;;;;5026308;28;20124;-78
2023/01/29 11:55:32;;;;;;;1.75;1.27;;;;;;;;;;5026278;28;20321;-77
2023/01/29 11:58:16;;;;;;;2.03;1.05;;;;;;;;;;5026997;28;20067;-77
2023/01/29 12:00:46;;;;;;;1.30;0.90;;;;;;;;;;5026546;28;20049;-77
2023/01/29 12:03:19;;;;;;;1.70;1.30;;;;;;;;;;5026568;28;20022;-77
2023/01/29 12:05:56;;;;;;;1.15;1.05;;;;;;;;;;5027022;28;20090;-77
2023/01/29 12:08:23;;;;;;;1.17;1.08;;;;;;;;;;5026092;28;20219;-78
2023/01/29 12:10:49;;;;;;;2.05;1.20;;;;;;;;;;5026436;28;20107;-77
2023/01/29 12:13:15;;;;;;;1.23;1.10;;;;;;;;;;5042435;28;20473;-77
2023/01/29 12:15:42;;;;;;;1.20;0.77;;;;;;;;;;5046099;28;20029;-76
2023/01/29 12:18:12;;;;;;;1.70;1.27;;;;;;;;;;5045965;28;20217;-77
2023/01/29 12:20:50;;;;;;;1.45;1.08;;;;;;;;;;5046292;28;20199;-77
2023/01/29 12:23:27;;;;;;;1.58;1.20;;;;;;;;;;5046506;28;20489;-77
2023/01/29 12:25:58;;;;;;;1.73;1.23;;;;;;;;;;5046463;28;20045;-77
2023/01/29 12:28:30;;;;;;;2.40;1.23;;;;;;;;;;5046299;28;20113;-77
2023/01/29 12:31:05;;;;;;;1.27;1.08;;;;;;;;;;5046091;28;20104;-78
2023/01/29 12:33:48;;;;;;;2.70;1.25;;;;;;;;;;5046765;28;20032;-77
2023/01/29 12:36:18;;;;;;;2.28;1.10;;;;;;;;;;5046440;28;20397;-76
2023/01/29 12:38:45;;;;;;;1.33;1.00;;;;;;;;;;5046767;28;20082;-77
2023/01/29 12:41:29;;;;;;;2.80;1.40;;;;;;;;;;5045742;28;20256;-76
2023/01/29 12:43:57;;;;;;;3.40;1.25;;;;;;;;;;5046076;28;20029;-77
2023/01/29 12:46:26;;;;;;;1.58;1.25;;;;;;;;;;5046049;28;20025;-77
2023/01/29 12:48:54;;;;;;;2.00;1.20;;;;;;;;;;5049941;28;20027;-77
2023/01/29 12:51:29;;;;;;;2.22;1.23;;;;;;;;;;5049883;28;20025;-77
2023/01/29 12:53:55;;;;;;;1.10;1.00;;;;;;;;;;5049821;28;20078;-77
2023/01/29 12:56:33;;;;;;;1.98;1.20;;;;;;;;;;5049654;28;20037;-77
2023/01/29 12:59:01;;;;;;;1.17;1.00;;;;;;;;;;5050265;28;20094;-77
2023/01/29 13:01:30;;;;;;;2.28;1.30;;;;;;;;;;5049682;28;20052;-77
2023/01/29 13:03:56;;;;;;;1.55;1.13;;;;;;;;;;5042788;28;20429;-77
2023/01/29 13:06:26;;;;;;;1.35;1.05;;;;;;;;;;5029947;28;20032;-77
2023/01/29 13:08:55;;;;;;;2.67;0.93;;;;;;;;;;5029656;28;20241;-77
2023/01/29 13:11:26;;;;;;;1.65;1.08;;;;;;;;;;5015737;28;20032;-77
2023/01/29 13:13:57;;;;;;;1.35;1.13;;;;;;;;;;5029587;28;20651;-77
2023/01/29 13:16:23;;;;;;;;;;;;;;;;;;5029534;28;20030;-76
2023/01/29 13:19:08;;;;;;;3.00;0.90;;;;;;;;;;5029629;28;20082;-76
2023/01/29 13:21:36;;;;;;;3.25;1.23;;;;;;;;;;5029375;28;20074;-76
2023/01/29 13:24:04;;;;;;;1.20;1.10;;;;;;;;;;5029315;28;20025;-76
2023/01/29 13:26:31;;;;;;;1.38;1.10;;;;;;;;;;5029974;28;20033;-77
2023/01/29 13:28:57;;;;;;;1.25;1.10;;;;;;;;;;5029503;28;20029;-77
2023/01/29 13:31:33;;;;;;;2.03;1.20;;;;;;;;;;5029402;28;20052;-77
2023/01/29 13:34:07;;;;;;;1.15;0.93;;;;;;;;;;5029658;28;20125;-77
2023/01/29 13:36:33;;;;;;;1.35;1.02;;;;;;;;;;5029680;28;20025;-77
2023/01/29 13:39:07;;;;;;;0.90;0.70;;;;;;;;;;5029920;28;20115;-77
2023/01/29 13:41:35;;;;;;;1.77;1.20;;;;;;;;;;5011127;28;20115;-77
2023/01/29 13:44:01;;;;;;;1.80;1.20;;;;;;;;;;5029014;28;20037;-77
2023/01/29 13:46:28;;;;;;;2.33;1.05;;;;;;;;;;5028925;28;20482;-77
2023/01/29 13:48:57;;;;;;;1.95;1.20;;;;;;;;;;5028757;28;20071;-77
2023/01/29 13:51:29;;;;;;;1.52;1.10;;;;;;;;;;5028528;28;20087;-77
2023/01/29 13:53:56;;;;;;;3.05;1.52;;;;;;;;;;5031924;28;20029;-76
2023/01/29 13:56:35;;;;;;;1.55;1.23;;;;;;;;;;5048549;28;20256;-77
2023/01/29 13:59:02;;;;;;;1.10;1.00;;;;;;;;;;5048874;28;20108;-76
2023/01/29 14:01:46;;;;;;;2.08;1.30;;;;;;;;;;5048603;28;20052;-76
2023/01/29 14:04:18;;;;;;;1.35;1.10;;;;;;;;;;5039324;28;20108;-77
2023/01/29 14:07:05;;;;;;;1.52;0.98;;;;;;;;;;5028922;28;20049;-77
2023/01/29 14:09:37;;;;;;;1.60;1.08;;;;;;;;;;5029046;28;20393;-77
2023/01/29 14:12:04;;;;;;;1.63;1.23;;;;;;;;;;5028915;28;20033;-77
2023/01/29 14:14:48;;;;;;;1.75;1.20;;;;;;;;;;5028754;28;20026;-77
2023/01/29 14:17:15;;;;;;;1.60;1.05;;;;;;;;;;5029166;28;20052;-77
2023/01/29 14:19:57;;;;;;;2.17;1.20;;;;;;;;;;5028487;28;20030;-78
2023/01/29 14:22:25;;;;;;;1.52;1.10;;;;;;;;;;5027992;28;20033;-77
2023/01/29 14:24:54;;;;;;;1.27;1.10;;;;;;;;;;5028514;28;20035;-77
2023/01/29 14:27:21;;;;;;;2.95;1.30;;;;;;;;;;5028165;28;20086;-77
2023/01/29 14:29:50;;;;;;;2.25;1.30;;;;;;;;;;5028461;28;20036;-77
2023/01/29 14:32:25;;;;;;;1.15;0.80;;;;;;;;;;5028350;28;20072;-77
2023/01/29 14:34:59;;;;;;;1.30;1.10;;;;;;;;;;5028274;28;20167;-78
2023/01/29 14:37:30;;;;;;;1.90;1.23;;;;;;;;;;5027745;28;20029;-78
2023/01/29 14:39:57;;;;;;;3.42;1.17;;;;;;;;;;5027952;28;20056;-77
2023/01/29 14:42:25;;;;;;;1.80;1.10;;;;;;;;;;5027539;28;20071;-77
2023/01/29 14:44:54;;;;;;;1.55;1.08;;;;;;;;;;5027871;28;20244;-77
2023/01/29 14:47:21;;;;;;;1.10;1.00;;;;;;;;;;5027754;28;20025;-77
2023/01/29 14:49:50;;;;;;;1.52;1.20;;;;;;;;;;5028011;28;20040;-77
2023/01/29 14:52:17;;;;;;;2.08;1.10;;;;;;;;;;5027450;28;20021;-77
2023/01/29 14:54:45;;;;;;;1.23;0.90;;;;;;;;;;5027947;28;20021;-77
2023/01/29 14:57:13;;;;;;;2.80;1.00;;;;;;;;;;5027267;28;20079;-77
2023/01/29 14:59:46;;;;;;;1.35;1.10;;;;;;;;;;5026900;28;20047;-78
2023/01/29 15:02:16;;;;;;;1.73;1.20;;;;;;;;;;5027341;28;20024;-77
2023/01/29 15:04:46;;;;;;;1.92;1.10;;;;;;;;;;5027320;28;20437;-76
2023/01/29 15:07:11;;;;;;;2.60;1.20;;;;;;;;;;5026991;28;20051;-76
2023/01/29 15:09:41;;;;;;;1.60;1.30;;;;;;;;;;5026304;28;20470;-76
2023/01/29 15:12:13;;;;;;;2.63;1.10;;;;;;;;;;5030898;28;20230;-76
2023/01/29 15:14:59;;;;;;;1.73;0.98;;;;;;;;;;5027156;28;20125;-77
2023/01/29 15:17:28;;;;;;;2.28;1.20;;;;;;;;;;5026698;28;20026;-78
2023/01/29 15:19:55;;;;;;;1.33;0.98;;;;;;;;;;5026801;28;20025;-77
2023/01/29 15:22:23;;;;;;;2.05;1.20;;;;;;;;;;5026533;28;20095;-77
2023/01/29 15:25:03;;;;;;;1.00;1.00;;;;;;;;;;5026641;28;20029;-77
2023/01/29 15:27:30;;;;;;;3.67;1.10;;;;;;;;;;5027464;28;20086;-77